createdAt,value
2022-10-19T00:02:07.069Z,14.50
2022-10-19T00:04:55.170Z,14.52
2022-10-19T00:07:43.465Z,14.58
2022-10-19T00:10:32.368Z,14.59
2022-10-19T00:13:20.463Z,14.63
2022-10-19T00:16:14.985Z,14.63
2022-10-19T00:19:08.145Z,14.65
2022-10-19T00:21:56.384Z,14.66
2022-10-19T00:24:44.603Z,14.70
2022-10-19T00:27:33.540Z,14.70
2022-10-19T00:30:21.647Z,14.73
2022-10-19T00:33:09.690Z,14.78
2022-10-19T00:35:58.193Z,14.76
2022-10-19T00:38:47.115Z,14.80
2022-10-19T00:41:37.143Z,14.83
2022-10-19T00:44:30.902Z,14.83
2022-10-19T00:47:23.449Z,14.80
2022-10-19T00:50:14.631Z,14.82
2022-10-19T00:53:02.842Z,14.81
2022-10-19T00:55:51.106Z,14.82
2022-10-19T00:58:41.615Z,14.80
2022-10-19T01:01:30.169Z,14.79
2022-10-19T01:04:21.305Z,14.77
2022-10-19T01:07:09.838Z,14.79
2022-10-19T01:09:58.314Z,14.79
2022-10-19T01:13:17.128Z,14.76
2022-10-19T01:16:22.508Z,14.74
2022-10-19T01:19:53.572Z,14.73
2022-10-19T01:23:25.272Z,14.74
2022-10-19T01:27:12.091Z,14.75
2022-10-19T01:30:07.311Z,14.71
2022-10-19T01:32:59.990Z,14.68
2022-10-19T01:36:18.342Z,14.67
2022-10-19T01:40:05.657Z,14.65
2022-10-19T01:43:22.405Z,14.59
2022-10-19T01:46:34.828Z,14.56
2022-10-19T01:49:32.818Z,14.59
2022-10-19T01:52:23.135Z,14.50
2022-10-19T01:55:14.669Z,14.53
2022-10-19T01:58:09.583Z,14.50
2022-10-19T02:01:02.789Z,14.48
2022-10-19T02:03:53.031Z,14.45
2022-10-19T02:06:41.592Z,14.41
2022-10-19T02:09:30.361Z,14.41
2022-10-19T02:12:20.649Z,14.42
2022-10-19T02:15:19.019Z,14.39
2022-10-19T02:18:08.484Z,14.35
2022-10-19T02:20:57.351Z,14.38
2022-10-19T02:23:46.173Z,14.31
2022-10-19T02:26:35.664Z,14.27
2022-10-19T02:29:23.809Z,14.24
2022-10-19T02:32:12.445Z,14.16
2022-10-19T02:35:00.648Z,14.17
2022-10-19T02:37:48.833Z,14.10
2022-10-19T02:40:43.309Z,13.98
2022-10-19T02:43:35.901Z,14.04
2022-10-19T02:46:35.293Z,14.03
2022-10-19T02:49:23.913Z,13.96
2022-10-19T02:52:13.395Z,13.92
2022-10-19T02:55:01.507Z,13.81
2022-10-19T02:57:49.592Z,13.66
2022-10-19T03:00:37.753Z,13.59
2022-10-19T03:03:25.828Z,13.54
2022-10-19T03:06:14.081Z,13.49
2022-10-19T03:09:02.150Z,13.47
2022-10-19T03:11:50.563Z,13.47
2022-10-19T03:14:39.043Z,13.47
2022-10-19T03:17:27.009Z,13.54
2022-10-19T03:20:15.152Z,13.52
2022-10-19T03:23:03.301Z,13.44
2022-10-19T03:25:51.352Z,13.49
2022-10-19T03:28:39.565Z,13.56
2022-10-19T03:31:27.644Z,13.55
2022-10-19T03:34:15.732Z,13.52
2022-10-19T03:37:03.930Z,13.52
2022-10-19T03:39:51.997Z,13.54
2022-10-19T03:42:40.081Z,13.52
2022-10-19T03:45:28.161Z,13.54
2022-10-19T03:48:16.413Z,13.60
2022-10-19T03:51:15.799Z,13.63
2022-10-19T03:54:08.376Z,13.64
2022-10-19T03:56:56.435Z,13.65
2022-10-19T03:59:44.481Z,13.67
2022-10-19T04:02:32.569Z,13.67
2022-10-19T04:05:20.602Z,13.72
2022-10-19T04:08:08.724Z,13.68
2022-10-19T04:11:08.393Z,13.71
2022-10-19T04:13:58.790Z,13.65
2022-10-19T04:16:47.276Z,13.70
2022-10-19T04:19:35.645Z,13.72
2022-10-19T04:22:23.988Z,13.70
2022-10-19T04:25:12.454Z,13.75
2022-10-19T04:28:00.484Z,13.73
2022-10-19T04:30:48.568Z,13.75
2022-10-19T04:33:36.685Z,13.72
2022-10-19T04:36:24.859Z,13.74
2022-10-19T04:39:13.073Z,13.71
2022-10-19T04:42:01.119Z,13.71
2022-10-19T04:44:49.605Z,13.71
2022-10-19T04:47:38.347Z,13.68
2022-10-19T04:50:26.752Z,13.69
2022-10-19T04:53:17.925Z,13.69
2022-10-19T04:56:09.065Z,13.67
2022-10-19T04:58:58.541Z,13.61
2022-10-19T05:01:47.534Z,13.62
2022-10-19T05:04:36.137Z,13.61
2022-10-19T05:07:24.545Z,13.63
2022-10-19T05:10:13.127Z,13.59
2022-10-19T05:13:02.596Z,13.56
2022-10-19T05:16:01.928Z,13.64
2022-10-19T05:18:52.572Z,13.61
2022-10-19T05:21:40.949Z,13.63
2022-10-19T05:24:29.419Z,13.63
2022-10-19T05:27:17.732Z,13.61
2022-10-19T05:30:08.283Z,13.59
2022-10-19T05:32:56.397Z,13.54
2022-10-19T05:35:44.832Z,13.54
2022-10-19T05:38:32.796Z,13.59
2022-10-19T05:41:22.413Z,13.61
2022-10-19T05:44:16.341Z,13.63
2022-10-19T05:47:04.471Z,13.59
2022-10-19T05:49:52.550Z,13.60
2022-10-19T05:52:41.041Z,13.63
2022-10-19T05:55:29.344Z,13.61
2022-10-19T05:58:17.679Z,13.52
2022-10-19T06:01:06.061Z,13.53
2022-10-19T06:03:56.859Z,13.52
2022-10-19T06:06:45.991Z,13.51
2022-10-19T06:09:36.388Z,13.48
2022-10-19T06:12:25.278Z,13.52
2022-10-19T06:15:13.744Z,13.52
2022-10-19T06:18:03.726Z,13.49
2022-10-19T06:20:53.062Z,13.52
2022-10-19T06:26:32.394Z,13.55
2022-10-19T06:29:20.502Z,13.57
2022-10-19T06:32:08.541Z,13.54
2022-10-19T06:34:56.836Z,13.57
2022-10-19T06:37:45.345Z,13.59
2022-10-19T06:40:34.435Z,13.58
2022-10-19T06:43:22.402Z,13.56
2022-10-19T06:46:20.280Z,13.50
2022-10-19T06:49:11.993Z,13.53
2022-10-19T06:52:00.458Z,13.61
2022-10-19T06:54:48.414Z,13.62
2022-10-19T06:57:36.879Z,13.55
2022-10-19T07:00:25.107Z,13.60
2022-10-19T07:03:13.193Z,13.68
2022-10-19T07:06:05.548Z,13.60
2022-10-19T07:08:54.015Z,13.53
2022-10-19T07:11:45.943Z,13.53
2022-10-19T07:14:38.752Z,13.61
2022-10-19T07:17:27.149Z,13.52
2022-10-19T07:20:15.528Z,13.49
2022-10-19T07:23:03.898Z,13.52
2022-10-19T07:25:53.690Z,13.45
2022-10-19T07:28:45.031Z,13.36
2022-10-19T07:31:33.563Z,13.45
2022-10-19T07:34:24.214Z,13.42
2022-10-19T07:37:15.136Z,13.39
2022-10-19T07:40:04.071Z,13.51
2022-10-19T07:42:52.489Z,13.62
2022-10-19T07:45:40.814Z,13.54
2022-10-19T07:48:29.456Z,13.64
2022-10-19T07:51:19.526Z,13.64
2022-10-19T07:54:08.167Z,13.71
2022-10-19T07:56:56.098Z,13.59
2022-10-19T07:59:44.586Z,13.57
2022-10-19T08:02:39.694Z,13.57
2022-10-19T08:05:40.908Z,13.63
2022-10-19T08:08:29.964Z,13.72
2022-10-19T08:11:22.800Z,13.64
2022-10-19T08:14:11.566Z,13.75
2022-10-19T08:17:00.165Z,13.75
2022-10-19T08:19:48.336Z,13.81
2022-10-19T08:22:36.964Z,13.81
2022-10-19T08:25:25.256Z,13.68
2022-10-19T08:28:13.688Z,13.72
2022-10-19T08:31:17.938Z,13.78
2022-10-19T08:34:06.851Z,13.85
2022-10-19T08:36:55.428Z,13.95
2022-10-19T08:39:43.426Z,13.81
2022-10-19T08:43:05.678Z,13.94
2022-10-19T08:46:35.810Z,14.06
2022-10-19T08:49:27.607Z,14.01
2022-10-19T08:52:21.983Z,14.00
2022-10-19T08:55:24.278Z,13.94
2022-10-19T08:58:43.674Z,13.97
2022-10-19T09:01:54.205Z,13.87
2022-10-19T09:04:49.592Z,14.04
2022-10-19T09:07:45.799Z,14.01
2022-10-19T09:10:41.539Z,13.98
2022-10-19T09:14:03.742Z,14.16
2022-10-19T09:17:01.795Z,14.16
2022-10-19T09:19:49.908Z,14.19
2022-10-19T09:22:38.135Z,14.16
2022-10-19T09:25:26.724Z,14.25
2022-10-19T09:28:41.041Z,14.17
2022-10-19T09:31:39.557Z,14.20
2022-10-19T09:34:49.378Z,14.25
2022-10-19T09:37:49.255Z,14.24
2022-10-19T09:40:38.306Z,14.38
2022-10-19T09:43:28.230Z,14.46
2022-10-19T09:46:38.573Z,14.48
2022-10-19T09:49:48.673Z,14.58
2022-10-19T09:52:39.901Z,14.61
2022-10-19T09:55:39.927Z,14.67
2022-10-19T09:58:32.954Z,14.63
2022-10-19T10:01:43.813Z,14.54
2022-10-19T10:04:32.261Z,14.62
2022-10-19T10:07:20.429Z,14.67
2022-10-19T10:10:30.592Z,14.66
2022-10-19T10:13:24.054Z,14.89
2022-10-19T10:16:16.706Z,14.90
2022-10-19T10:19:08.693Z,15.01
2022-10-19T10:21:58.547Z,15.15
2022-10-19T10:24:54.877Z,15.05
2022-10-19T10:27:43.050Z,15.11
2022-10-19T10:30:35.648Z,15.36
2022-10-19T10:33:40.399Z,15.37
2022-10-19T10:36:32.452Z,15.49
2022-10-19T10:39:20.969Z,15.40
2022-10-19T10:42:16.874Z,15.56
2022-10-19T10:45:26.305Z,15.43
2022-10-19T10:48:44.965Z,15.43
2022-10-19T10:51:49.190Z,15.45
2022-10-19T10:54:40.437Z,15.38
2022-10-19T10:57:39.143Z,15.43
2022-10-19T11:00:29.174Z,15.52
2022-10-19T11:03:25.761Z,15.49
2022-10-19T11:06:17.163Z,15.42
2022-10-19T11:09:31.502Z,15.44
2022-10-19T11:12:36.499Z,15.48
2022-10-19T11:16:12.608Z,15.66
2022-10-19T11:19:19.178Z,15.52
2022-10-19T11:22:27.156Z,15.53
2022-10-19T11:25:55.063Z,15.72
2022-10-19T11:28:51.895Z,15.67
2022-10-19T11:31:55.670Z,16.00
2022-10-19T11:35:13.522Z,16.07
2022-10-19T11:38:38.820Z,16.19
2022-10-19T11:41:43.527Z,16.26
2022-10-19T11:44:55.569Z,16.32
2022-10-19T11:48:12.527Z,16.25
2022-10-19T11:51:20.758Z,16.60
2022-10-19T11:54:40.852Z,16.64
2022-10-19T11:57:42.549Z,16.69
2022-10-19T12:00:41.217Z,16.53
2022-10-19T12:04:13.841Z,16.71
2022-10-19T12:07:28.951Z,16.80
2022-10-19T12:10:34.317Z,16.87
2022-10-19T12:13:47.874Z,16.79
2022-10-19T12:16:49.671Z,17.21
2022-10-19T12:19:45.214Z,17.26
2022-10-19T12:22:37.488Z,17.19
2022-10-19T12:25:27.386Z,17.48
2022-10-19T12:28:27.384Z,17.63
2022-10-19T12:31:15.926Z,17.85
2022-10-19T12:35:00.378Z,17.87
2022-10-19T12:38:16.078Z,17.66
2022-10-19T12:41:14.502Z,17.59
2022-10-19T12:44:41.396Z,18.26
2022-10-19T12:47:29.934Z,18.07
2022-10-19T12:50:50.210Z,18.59
2022-10-19T12:53:43.277Z,18.28
2022-10-19T12:56:31.597Z,18.21
2022-10-19T12:59:34.540Z,18.45
2022-10-19T13:02:37.913Z,18.13
2022-10-19T13:05:29.590Z,17.96
2022-10-19T13:08:34.855Z,18.20
2022-10-19T13:11:24.011Z,18.67
2022-10-19T13:14:15.009Z,18.07
2022-10-19T13:17:03.741Z,18.42
2022-10-19T13:20:14.644Z,18.68
2022-10-19T13:23:05.959Z,18.62
2022-10-19T13:26:33.222Z,18.32
2022-10-19T13:29:39.321Z,18.96
2022-10-19T13:32:45.038Z,18.45
2022-10-19T13:35:35.546Z,18.42
2022-10-19T13:39:25.514Z,18.49
2022-10-19T13:42:27.386Z,19.18
2022-10-19T13:45:24.413Z,18.79
2022-10-19T13:48:26.033Z,19.46
2022-10-19T13:51:38.507Z,19.12
2022-10-19T13:54:26.870Z,18.78
2022-10-19T13:57:47.851Z,18.86
2022-10-19T14:01:18.167Z,19.01
2022-10-19T14:05:03.236Z,18.96
2022-10-19T14:08:48.851Z,19.21
2022-10-19T14:11:43.842Z,18.78
2022-10-19T14:17:34.226Z,19.10
2022-10-19T14:20:38.677Z,19.09
2022-10-19T14:23:34.340Z,18.80
2022-10-19T14:26:29.076Z,18.58
2022-10-19T14:29:17.145Z,18.61
2022-10-19T14:32:05.411Z,18.52
2022-10-19T14:34:59.573Z,18.42
2022-10-19T14:37:47.889Z,18.35
2022-10-19T14:40:41.438Z,18.78
2022-10-19T14:43:32.354Z,18.84
2022-10-19T14:46:20.838Z,18.81
2022-10-19T14:49:12.748Z,18.71
2022-10-19T14:52:03.775Z,18.03
2022-10-19T14:54:54.557Z,18.09
2022-10-19T14:57:45.745Z,17.92
2022-10-19T15:00:34.061Z,17.90
2022-10-19T15:03:27.297Z,17.98
2022-10-19T15:06:25.260Z,17.87
2022-10-19T15:09:37.393Z,17.83
2022-10-19T15:12:39.265Z,17.69
2022-10-19T15:15:31.240Z,17.55
2022-10-19T15:18:43.977Z,17.67
2022-10-19T15:21:33.498Z,17.56
2022-10-19T15:24:27.569Z,17.66
2022-10-19T15:27:22.215Z,17.63
2022-10-19T15:30:19.457Z,17.53
2022-10-19T15:33:09.661Z,17.51
2022-10-19T15:36:17.215Z,17.55
2022-10-19T15:39:25.038Z,17.52
2022-10-19T15:42:41.061Z,17.42
2022-10-19T15:45:29.308Z,17.33
2022-10-19T15:48:40.371Z,17.27
2022-10-19T15:51:29.397Z,17.16
2022-10-19T15:54:19.271Z,17.00
2022-10-19T15:57:31.346Z,17.02
2022-10-19T16:00:20.483Z,16.97
2022-10-19T16:03:09.299Z,16.89
2022-10-19T16:05:57.503Z,16.82
2022-10-19T16:08:46.420Z,16.73
2022-10-19T16:11:35.545Z,16.70
2022-10-19T16:14:26.790Z,16.62
2022-10-19T16:17:16.210Z,16.56
2022-10-19T16:20:06.430Z,16.56
2022-10-19T16:22:54.937Z,16.41
2022-10-19T16:25:43.061Z,16.40
2022-10-19T16:28:31.490Z,16.39
2022-10-19T16:31:19.839Z,16.37
2022-10-19T16:34:07.962Z,16.43
2022-10-19T16:36:56.097Z,16.37
2022-10-19T16:39:44.341Z,16.28
2022-10-19T16:42:33.235Z,16.18
2022-10-19T16:45:21.503Z,16.13
2022-10-19T16:48:12.581Z,16.13
2022-10-19T16:51:10.386Z,16.09
2022-10-19T16:53:59.215Z,16.04
2022-10-19T16:56:48.432Z,15.97
2022-10-19T16:59:36.595Z,15.97
2022-10-19T17:02:24.692Z,15.88
2022-10-19T17:05:12.786Z,15.84
2022-10-19T17:08:00.885Z,15.84
2022-10-19T17:10:48.994Z,15.81
2022-10-19T17:13:37.202Z,15.73
2022-10-19T17:16:27.840Z,15.63
2022-10-19T17:19:15.874Z,15.61
2022-10-19T17:22:05.222Z,15.61
2022-10-19T17:24:55.480Z,15.51
2022-10-19T17:27:43.513Z,15.35
2022-10-19T17:30:31.585Z,15.30
2022-10-19T17:33:21.406Z,15.30
2022-10-19T17:36:13.925Z,15.29
2022-10-19T17:39:09.328Z,15.31
2022-10-19T17:42:01.911Z,15.26
2022-10-19T17:44:50.361Z,15.25
2022-10-19T17:47:38.520Z,15.22
2022-10-19T17:50:26.684Z,15.22
2022-10-19T17:53:14.700Z,15.23
2022-10-19T17:56:06.550Z,15.16
2022-10-19T17:58:56.195Z,15.16
2022-10-19T18:01:44.301Z,15.20
2022-10-19T18:04:32.461Z,15.18
2022-10-19T18:07:22.143Z,15.16
2022-10-19T18:10:10.302Z,15.07
2022-10-19T18:12:58.371Z,15.05
2022-10-19T18:15:46.407Z,15.07
2022-10-19T18:18:38.053Z,15.04
2022-10-19T18:21:34.081Z,15.02
2022-10-19T18:24:22.158Z,15.04
2022-10-19T18:27:12.831Z,14.90
2022-10-19T18:30:00.869Z,14.92
2022-10-19T18:32:52.077Z,14.87
2022-10-19T18:35:41.012Z,14.83
2022-10-19T18:38:29.114Z,14.78
2022-10-19T18:41:17.260Z,14.78
2022-10-19T18:44:06.945Z,14.75
2022-10-19T18:46:56.565Z,14.71
2022-10-19T18:49:44.655Z,14.72
2022-10-19T18:52:36.208Z,14.55
2022-10-19T18:55:24.497Z,14.54
2022-10-19T18:58:12.798Z,14.48
2022-10-19T19:01:16.930Z,14.47
2022-10-19T19:04:09.333Z,14.51
2022-10-19T19:06:57.420Z,14.47
2022-10-19T19:09:45.665Z,14.28
2022-10-19T19:12:34.087Z,14.21
2022-10-19T19:15:22.434Z,14.20
2022-10-19T19:18:10.518Z,14.14
2022-10-19T19:20:58.572Z,14.12
2022-10-19T19:23:48.055Z,14.05
2022-10-19T19:26:41.600Z,13.86
2022-10-19T19:29:30.544Z,13.83
2022-10-19T19:32:18.620Z,13.76
2022-10-19T19:35:07.095Z,13.82
2022-10-19T19:37:55.191Z,13.78
2022-10-19T19:40:46.137Z,13.82
2022-10-19T19:43:37.144Z,13.82
2022-10-19T19:46:25.501Z,13.93
2022-10-19T19:49:14.002Z,13.89
2022-10-19T19:52:02.121Z,13.87
2022-10-19T19:54:50.382Z,13.87
2022-10-19T19:57:38.541Z,13.89
2022-10-19T20:00:27.256Z,13.87
2022-10-19T20:03:16.401Z,13.92
2022-10-19T20:06:05.798Z,13.87
2022-10-19T20:08:56.376Z,13.81
2022-10-19T20:11:45.219Z,13.84
2022-10-19T20:14:33.517Z,13.77
2022-10-19T20:17:23.863Z,13.82
2022-10-19T20:20:14.934Z,13.71
2022-10-19T20:23:03.043Z,13.58
2022-10-19T20:25:53.534Z,13.60
2022-10-19T20:28:41.645Z,13.45
2022-10-19T20:31:31.519Z,13.45
2022-10-19T20:34:23.162Z,13.26
2022-10-19T20:37:12.455Z,13.23
2022-10-19T20:40:01.567Z,13.20
2022-10-19T20:42:51.385Z,13.18
2022-10-19T20:45:39.432Z,13.13
2022-10-19T20:48:27.481Z,12.95
2022-10-19T20:51:30.726Z,12.94
2022-10-19T20:54:20.283Z,12.90
2022-10-19T20:57:08.246Z,12.86
2022-10-19T20:59:56.304Z,12.81
2022-10-19T21:02:45.064Z,12.86
2022-10-19T21:05:33.176Z,12.82
2022-10-19T21:08:21.260Z,12.74
2022-10-19T21:11:20.365Z,12.67
2022-10-19T21:14:25.203Z,12.70
2022-10-19T21:17:16.192Z,12.72
2022-10-19T21:20:04.518Z,12.73
2022-10-19T21:22:52.681Z,12.61
2022-10-19T21:25:40.773Z,12.47
2022-10-19T21:28:28.894Z,12.45
2022-10-19T21:31:18.086Z,12.43
2022-10-19T21:34:08.466Z,12.49
2022-10-19T21:36:57.081Z,12.44
2022-10-19T21:39:44.987Z,12.41
2022-10-19T21:42:33.442Z,12.23
2022-10-19T21:45:36.535Z,12.02
2022-10-19T21:48:24.627Z,12.12
2022-10-19T21:51:32.666Z,12.02
2022-10-19T21:54:29.165Z,12.01
2022-10-19T21:57:17.660Z,12.08
2022-10-19T22:00:06.561Z,12.12
2022-10-19T22:03:00.855Z,12.11
2022-10-19T22:05:52.812Z,12.05
2022-10-19T22:08:45.442Z,12.06
2022-10-19T22:11:33.694Z,12.03
2022-10-19T22:14:21.879Z,12.02
2022-10-19T22:17:09.941Z,11.96
2022-10-19T22:19:57.973Z,11.76
2022-10-19T22:22:46.078Z,11.89
2022-10-19T22:25:35.721Z,11.89
2022-10-19T22:28:23.918Z,11.91
2022-10-19T22:31:13.146Z,11.91
2022-10-19T22:34:08.259Z,11.85
2022-10-19T22:36:56.281Z,11.87
2022-10-19T22:39:44.344Z,11.89
2022-10-19T22:42:32.641Z,11.82
2022-10-19T22:45:20.929Z,11.75
2022-10-19T22:48:09.090Z,11.71
2022-10-19T22:50:57.246Z,11.69
2022-10-19T22:53:45.348Z,11.75
2022-10-19T22:56:33.517Z,11.68
2022-10-19T22:59:21.549Z,11.69
2022-10-19T23:02:09.627Z,11.67
2022-10-19T23:04:57.663Z,11.62
2022-10-19T23:07:45.770Z,11.61
2022-10-19T23:10:33.951Z,11.62
2022-10-19T23:13:22.432Z,11.58
2022-10-19T23:16:11.109Z,11.54
2022-10-19T23:18:59.141Z,11.50
2022-10-19T23:21:47.211Z,11.56
2022-10-19T23:24:35.251Z,11.53
2022-10-19T23:27:23.369Z,11.53
2022-10-19T23:30:11.739Z,11.53
2022-10-19T23:32:59.778Z,11.46
2022-10-19T23:35:47.818Z,11.42
2022-10-19T23:38:36.585Z,11.36
2022-10-19T23:41:24.725Z,11.32
2022-10-19T23:44:12.841Z,11.29
2022-10-19T23:47:00.833Z,11.23
2022-10-19T23:49:48.917Z,11.31
2022-10-19T23:52:36.999Z,11.26
2022-10-19T23:55:25.170Z,11.22
2022-10-19T23:58:13.262Z,11.19
